Ava Foss — WDF5779 — position and weather

sailwx.info

Track history (hours):
 
Tides and Currents Weather Stations Pressure Air Temp Water Temp Dewpoint Dewpoint Depression Visibility Wind Speed Wind Dir Waves Ship Positions

Ava Foss

Owner: Foss Maritime Company, Seattle, WA. More information available from US FCC via Universal Licensing System and Coast Guard Vessel Documentation Center.

Last reported at 2016-Apr-28 19:20 UTC. Time now 2016-Apr-29 01:56 UTC.
Position N 33°51' W 118°24'.

Length 10 m; draft 2.5 m.

Type: Passenger vessel. MMSI: 367467120.

Date/timePositionNaut miles runAvg speedWind from/ knotsBaromVisibWave heightAir tempDewpointWater temp
2016-Apr-28 19:20N 33°51' W 118°24'0 0.6
2016-Apr-28 18:33N 33°51' W 118°24'6 5.6
2016-Apr-28 17:32N 33°54' W 118°29'6 2.6
2016-Apr-28 15:08N 33°51' W 118°24'0 0.0
2016-Apr-28 14:32N 33°51' W 118°24'0 0.0
2016-Apr-28 13:32N 33°51' W 118°24'0 0.0
2016-Apr-28 12:32N 33°51' W 118°24'0 0.0
2016-Apr-28 11:32N 33°51' W 118°24'0 0.0
2016-Apr-28 10:32N 33°51' W 118°24'0 0.0
2016-Apr-28 09:32N 33°51' W 118°24'0 0.0
2016-Apr-28 08:32N 33°51' W 118°24'0 0.0
2016-Apr-28 07:32N 33°51' W 118°24'0 0.0
2016-Apr-28 06:32N 33°51' W 118°24'0 0.0
2016-Apr-28 05:23N 33°51' W 118°24'0 0.0
2016-Apr-28 03:32N 33°51' W 118°24'0 0.0
2016-Apr-28 02:32N 33°51' W 118°24'0 0.0
2016-Apr-27 23:20N 33°51' W 118°24'0 0.0
2016-Apr-27 22:08N 33°51' W 118°24'0 0.0
2016-Apr-27 21:26N 33°51' W 118°24'0 0.0
2016-Apr-27 20:32N 33°51' W 118°24'0 0.0
2016-Apr-27 19:32N 33°51' W 118°24'5 5.3
2016-Apr-27 18:33N 33°55' W 118°27'5 4.0
2016-Apr-27 17:17N 33°51' W 118°24'0 0.0
2016-Apr-27 16:28N 33°51' W 118°24'0 0.0
2016-Apr-27 15:33N 33°51' W 118°24'0 0.0
2016-Apr-27 14:31N 33°51' W 118°24'0 0.0
2016-Apr-27 13:33N 33°51' W 118°24'0 0.0
2016-Apr-27 12:33N 33°51' W 118°24'0 0.0
2016-Apr-27 11:33N 33°51' W 118°24'0 0.0
2016-Apr-27 10:30N 33°51' W 118°24'0 0.0
2016-Apr-27 09:33N 33°51' W 118°24'0 0.0
2016-Apr-27 08:30N 33°51' W 118°24'0 0.0
2016-Apr-27 07:33N 33°51' W 118°24'0 0.0
2016-Apr-27 06:33N 33°51' W 118°24'0 0.0
2016-Apr-27 05:33N 33°51' W 118°24'0 0.0
2016-Apr-27 04:33N 33°51' W 118°24'0 0.0
2016-Apr-27 03:33N 33°51' W 118°24'0 0.0
2016-Apr-27 02:33N 33°51' W 118°24'5 1.6
2016-Apr-26 23:19N 33°55' W 118°27'5 5.0
2016-Apr-26 22:17N 33°51' W 118°24'0 0.0
2016-Apr-26 21:32N 33°51' W 118°24'0 0.0
2016-Apr-26 20:32N 33°51' W 118°24'0 0.0
2016-Apr-26 19:33N 33°51' W 118°24'5 5.2
2016-Apr-26 18:33N 33°55' W 118°27'5 5.1
2016-Apr-26 17:32N 33°51' W 118°24'0 0.0
2016-Apr-26 16:33N 33°51' W 118°24'0 0.0
2016-Apr-26 15:33N 33°51' W 118°24'2 2.5
2016-Apr-26 14:34N 33°51' W 118°27'2 1.9
2016-Apr-26 13:13N 33°51' W 118°24'0 0.0
2016-Apr-26 10:13N 33°51' W 118°24'0 0.0
2016-Apr-26 09:19N 33°51' W 118°24'0 0.0
2016-Apr-26 08:31N 33°51' W 118°24'0 0.0
2016-Apr-26 07:25N 33°51' W 118°24'0 0.0
2016-Apr-26 06:25N 33°51' W 118°24'0 0.0
2016-Apr-26 05:31N 33°51' W 118°24'0 0.3
2016-Apr-26 04:29N 33°51' W 118°24'0 0.3
2016-Apr-26 03:31N 33°51' W 118°24'0 0.0
2016-Apr-26 02:31N 33°51' W 118°24'0 0.0
2016-Apr-26 01:31N 33°51' W 118°24'0 0.0
2016-Apr-26 00:31N 33°51' W 118°24'0 0.0
2016-Apr-25 23:31N 33°51' W 118°24'0 0.0
2016-Apr-25 22:31N 33°51' W 118°24'0 0.0
2016-Apr-25 21:31N 33°51' W 118°24'0 0.0
2016-Apr-25 20:31N 33°51' W 118°24'0 0.0
2016-Apr-25 19:28N 33°51' W 118°24'0 0.0
2016-Apr-25 18:28N 33°51' W 118°24'0 0.0
2016-Apr-25 17:31N 33°51' W 118°24'0 0.0
2016-Apr-25 16:31N 33°51' W 118°24'0 0.0
2016-Apr-25 15:19N 33°51' W 118°24'0 0.0
2016-Apr-25 13:19N 33°51' W 118°24'0 0.0
2016-Apr-25 12:31N 33°51' W 118°24'0 0.0
2016-Apr-25 11:31N 33°51' W 118°24'0 0.0
2016-Apr-25 10:25N 33°51' W 118°24'0 0.0
2016-Apr-25 09:31N 33°51' W 118°24'0 0.0
2016-Apr-25 08:31N 33°51' W 118°24'0 0.0
2016-Apr-25 07:31N 33°51' W 118°24'0 0.0
2016-Apr-25 06:28N 33°51' W 118°24'0 0.0
2016-Apr-25 05:31N 33°51' W 118°24'0 0.0
2016-Apr-25 04:31N 33°51' W 118°24'0 0.0
2016-Apr-25 03:25N 33°51' W 118°24'0 0.0
2016-Apr-25 02:31N 33°51' W 118°24'0 0.0
2016-Apr-25 01:25N 33°51' W 118°24'0 0.0
2016-Apr-25 00:31N 33°51' W 118°24'0 0.0
2016-Apr-24 23:31N 33°51' W 118°24'0 0.0
2016-Apr-24 22:31N 33°51' W 118°24'0 0.0
2016-Apr-24 21:25N 33°51' W 118°24'0 0.0
2016-Apr-24 20:31N 33°51' W 118°24'0 0.0
2016-Apr-24 19:28N 33°51' W 118°24'0 0.0
2016-Apr-24 18:31N 33°51' W 118°24'0 0.0
2016-Apr-24 17:28N 33°51' W 118°24'0 0.0
2016-Apr-24 16:31N 33°51' W 118°24'0 0.0
2016-Apr-24 15:28N 33°51' W 118°24'5 4.3
2016-Apr-24 14:21N 33°54' W 118°27'5 2.6
2016-Apr-24 12:29N 33°51' W 118°24'4 0.6
2016-Apr-24 05:25N 33°54' W 118°27'4 4.6
2016-Apr-24 04:31N 33°51' W 118°24'0 0.0
2016-Apr-24 03:33N 33°51' W 118°24'0 0.0
2016-Apr-24 02:22N 33°51' W 118°24'0 0.0
2016-Apr-24 01:30N 33°51' W 118°24'0 0.0
2016-Apr-24 00:19N 33°51' W 118°24'1 0.6
2016-Apr-23 22:30N 33°51' W 118°24'1 0.5
2016-Apr-23 20:24N 33°51' W 118°24'5 5.9
2016-Apr-23 19:33N 33°54' W 118°27'5 3.9
2016-Apr-23 18:18N 33°51' W 118°24'1 0.8
2016-Apr-23 16:33N 33°51' W 118°25'2 0.1
2016-Apr-22 13:23N 33°53' W 118°27'2 0.3
2016-Apr-22 07:19N 33°54' W 118°27'2 0.3
2016-Apr-21 23:14N 33°53' W 118°26'2 0.4
2016-Apr-21 18:27N 33°51' W 118°27'3 0.2
2016-Apr-21 07:29N 33°51' W 118°24'4 3.2
2016-Apr-21 06:07N 33°54' W 118°27'4 2.5
2016-Apr-21 04:21N 33°51' W 118°24'5 0.9
2016-Apr-20 23:24N 33°53' W 118°28'5 1.6
2016-Apr-20 20:33N 33°51' W 118°24'0 0.0
2016-Apr-20 19:33N 33°51' W 118°24'0 0.0
2016-Apr-20 18:33N 33°51' W 118°24'0 0.0
2016-Apr-20 17:33N 33°51' W 118°24'0 0.0
2016-Apr-20 16:33N 33°51' W 118°24'6 3.9
2016-Apr-20 15:05N 33°52' W 118°30'6 3.4
2016-Apr-20 13:25N 33°51' W 118°24'5 0.7
2016-Apr-20 06:28N 33°54' W 118°28'1 0.5
2016-Apr-20 05:25N 33°54' W 118°27'0 0.1
2016-Apr-20 00:27N 33°54' W 118°27'1 0.1
2016-Apr-19 19:21N 33°55' W 118°27'5 6.4
2016-Apr-19 18:31N 33°51' W 118°24'0 0.0
2016-Apr-19 17:31N 33°51' W 118°24'0 0.3
2016-Apr-19 16:06N 33°51' W 118°24'0 0.7
2016-Apr-19 15:30N 33°51' W 118°24'0 0.0
2016-Apr-19 14:31N 33°51' W 118°24'0 0.0
2016-Apr-19 13:31N 33°51' W 118°24'0 0.0
2016-Apr-19 01:33N 33°50' W 118°24'5 4.1
2016-Apr-19 00:23N 33°54' W 118°27'0 0.3
2016-Apr-18 23:33N 33°54' W 118°27'4 4.0
2016-Apr-18 22:33N 33°51' W 118°24'4 4.1
2016-Apr-18 21:33N 33°54' W 118°28'3 3.4
2016-Apr-18 20:33N 33°51' W 118°27'4 3.7
2016-Apr-18 19:24N 33°55' W 118°27'  
Track history (hours):
 
Tides and Currents Weather Stations Pressure Air Temp Water Temp Dewpoint Dewpoint Depression Visibility Wind Speed Wind Dir Waves Ship Positions

Ava Foss

Owner: Foss Maritime Company, Seattle, WA. More information available from US FCC via Universal Licensing System and Coast Guard Vessel Documentation Center.

Last reported at 2016-Apr-28 19:20 UTC. Time now 2016-Apr-29 01:56 UTC.
Position N 33°51' W 118°24'.

Length 10 m; draft 2.5 m.

Type: Passenger vessel. MMSI: 367467120.

Date/timePositionNaut miles runAvg speedWind from/ knotsBaromVisibWave heightAir tempDewpointWater temp
2016-Apr-28 19:20N 33°51' W 118°24'0 0.6
2016-Apr-28 18:33N 33°51' W 118°24'6 5.6
2016-Apr-28 17:32N 33°54' W 118°29'6 2.6
2016-Apr-28 15:08N 33°51' W 118°24'0 0.0
2016-Apr-28 14:32N 33°51' W 118°24'0 0.0
2016-Apr-28 13:32N 33°51' W 118°24'0 0.0
2016-Apr-28 12:32N 33°51' W 118°24'0 0.0
2016-Apr-28 11:32N 33°51' W 118°24'0 0.0
2016-Apr-28 10:32N 33°51' W 118°24'0 0.0
2016-Apr-28 09:32N 33°51' W 118°24'0 0.0
2016-Apr-28 08:32N 33°51' W 118°24'0 0.0
2016-Apr-28 07:32N 33°51' W 118°24'0 0.0
2016-Apr-28 06:32N 33°51' W 118°24'0 0.0
2016-Apr-28 05:23N 33°51' W 118°24'0 0.0
2016-Apr-28 03:32N 33°51' W 118°24'0 0.0
2016-Apr-28 02:32N 33°51' W 118°24'0 0.0
2016-Apr-27 23:20N 33°51' W 118°24'0 0.0
2016-Apr-27 22:08N 33°51' W 118°24'0 0.0
2016-Apr-27 21:26N 33°51' W 118°24'0 0.0
2016-Apr-27 20:32N 33°51' W 118°24'0 0.0
2016-Apr-27 19:32N 33°51' W 118°24'5 5.3
2016-Apr-27 18:33N 33°55' W 118°27'5 4.0
2016-Apr-27 17:17N 33°51' W 118°24'0 0.0
2016-Apr-27 16:28N 33°51' W 118°24'0 0.0
2016-Apr-27 15:33N 33°51' W 118°24'0 0.0
2016-Apr-27 14:31N 33°51' W 118°24'0 0.0
2016-Apr-27 13:33N 33°51' W 118°24'0 0.0
2016-Apr-27 12:33N 33°51' W 118°24'0 0.0
2016-Apr-27 11:33N 33°51' W 118°24'0 0.0
2016-Apr-27 10:30N 33°51' W 118°24'0 0.0
2016-Apr-27 09:33N 33°51' W 118°24'0 0.0
2016-Apr-27 08:30N 33°51' W 118°24'0 0.0
2016-Apr-27 07:33N 33°51' W 118°24'0 0.0
2016-Apr-27 06:33N 33°51' W 118°24'0 0.0
2016-Apr-27 05:33N 33°51' W 118°24'0 0.0
2016-Apr-27 04:33N 33°51' W 118°24'0 0.0
2016-Apr-27 03:33N 33°51' W 118°24'0 0.0
2016-Apr-27 02:33N 33°51' W 118°24'5 1.6
2016-Apr-26 23:19N 33°55' W 118°27'5 5.0
2016-Apr-26 22:17N 33°51' W 118°24'0 0.0
2016-Apr-26 21:32N 33°51' W 118°24'0 0.0
2016-Apr-26 20:32N 33°51' W 118°24'0 0.0
2016-Apr-26 19:33N 33°51' W 118°24'5 5.2
2016-Apr-26 18:33N 33°55' W 118°27'5 5.1
2016-Apr-26 17:32N 33°51' W 118°24'0 0.0
2016-Apr-26 16:33N 33°51' W 118°24'0 0.0
2016-Apr-26 15:33N 33°51' W 118°24'2 2.5
2016-Apr-26 14:34N 33°51' W 118°27'2 1.9
2016-Apr-26 13:13N 33°51' W 118°24'0 0.0
2016-Apr-26 10:13N 33°51' W 118°24'0 0.0
2016-Apr-26 09:19N 33°51' W 118°24'0 0.0
2016-Apr-26 08:31N 33°51' W 118°24'0 0.0
2016-Apr-26 07:25N 33°51' W 118°24'0 0.0
2016-Apr-26 06:25N 33°51' W 118°24'0 0.0
2016-Apr-26 05:31N 33°51' W 118°24'0 0.3
2016-Apr-26 04:29N 33°51' W 118°24'0 0.3
2016-Apr-26 03:31N 33°51' W 118°24'0 0.0
2016-Apr-26 02:31N 33°51' W 118°24'0 0.0
2016-Apr-26 01:31N 33°51' W 118°24'0 0.0
2016-Apr-26 00:31N 33°51' W 118°24'0 0.0
2016-Apr-25 23:31N 33°51' W 118°24'0 0.0
2016-Apr-25 22:31N 33°51' W 118°24'0 0.0
2016-Apr-25 21:31N 33°51' W 118°24'0 0.0
2016-Apr-25 20:31N 33°51' W 118°24'0 0.0
2016-Apr-25 19:28N 33°51' W 118°24'0 0.0
2016-Apr-25 18:28N 33°51' W 118°24'0 0.0
2016-Apr-25 17:31N 33°51' W 118°24'0 0.0
2016-Apr-25 16:31N 33°51' W 118°24'0 0.0
2016-Apr-25 15:19N 33°51' W 118°24'0 0.0
2016-Apr-25 13:19N 33°51' W 118°24'0 0.0
2016-Apr-25 12:31N 33°51' W 118°24'0 0.0
2016-Apr-25 11:31N 33°51' W 118°24'0 0.0
2016-Apr-25 10:25N 33°51' W 118°24'0 0.0
2016-Apr-25 09:31N 33°51' W 118°24'0 0.0
2016-Apr-25 08:31N 33°51' W 118°24'0 0.0
2016-Apr-25 07:31N 33°51' W 118°24'0 0.0
2016-Apr-25 06:28N 33°51' W 118°24'0 0.0
2016-Apr-25 05:31N 33°51' W 118°24'0 0.0
2016-Apr-25 04:31N 33°51' W 118°24'0 0.0
2016-Apr-25 03:25N 33°51' W 118°24'0 0.0
2016-Apr-25 02:31N 33°51' W 118°24'0 0.0
2016-Apr-25 01:25N 33°51' W 118°24'0 0.0
2016-Apr-25 00:31N 33°51' W 118°24'0 0.0
2016-Apr-24 23:31N 33°51' W 118°24'0 0.0
2016-Apr-24 22:31N 33°51' W 118°24'0 0.0
2016-Apr-24 21:25N 33°51' W 118°24'0 0.0
2016-Apr-24 20:31N 33°51' W 118°24'0 0.0
2016-Apr-24 19:28N 33°51' W 118°24'0 0.0
2016-Apr-24 18:31N 33°51' W 118°24'0 0.0
2016-Apr-24 17:28N 33°51' W 118°24'0 0.0
2016-Apr-24 16:31N 33°51' W 118°24'0 0.0
2016-Apr-24 15:28N 33°51' W 118°24'5 4.3
2016-Apr-24 14:21N 33°54' W 118°27'5 2.6
2016-Apr-24 12:29N 33°51' W 118°24'4 0.6
2016-Apr-24 05:25N 33°54' W 118°27'4 4.6
2016-Apr-24 04:31N 33°51' W 118°24'0 0.0
2016-Apr-24 03:33N 33°51' W 118°24'0 0.0
2016-Apr-24 02:22N 33°51' W 118°24'0 0.0
2016-Apr-24 01:30N 33°51' W 118°24'0 0.0
2016-Apr-24 00:19N 33°51' W 118°24'1 0.6
2016-Apr-23 22:30N 33°51' W 118°24'1 0.5
2016-Apr-23 20:24N 33°51' W 118°24'5 5.9
2016-Apr-23 19:33N 33°54' W 118°27'5 3.9
2016-Apr-23 18:18N 33°51' W 118°24'1 0.8
2016-Apr-23 16:33N 33°51' W 118°25'2 0.1
2016-Apr-22 13:23N 33°53' W 118°27'2 0.3
2016-Apr-22 07:19N 33°54' W 118°27'2 0.3
2016-Apr-21 23:14N 33°53' W 118°26'2 0.4
2016-Apr-21 18:27N 33°51' W 118°27'3 0.2
2016-Apr-21 07:29N 33°51' W 118°24'4 3.2
2016-Apr-21 06:07N 33°54' W 118°27'4 2.5
2016-Apr-21 04:21N 33°51' W 118°24'5 0.9
2016-Apr-20 23:24N 33°53' W 118°28'5 1.6
2016-Apr-20 20:33N 33°51' W 118°24'0 0.0
2016-Apr-20 19:33N 33°51' W 118°24'0 0.0
2016-Apr-20 18:33N 33°51' W 118°24'0 0.0
2016-Apr-20 17:33N 33°51' W 118°24'0 0.0
2016-Apr-20 16:33N 33°51' W 118°24'6 3.9
2016-Apr-20 15:05N 33°52' W 118°30'6 3.4
2016-Apr-20 13:25N 33°51' W 118°24'5 0.7
2016-Apr-20 06:28N 33°54' W 118°28'1 0.5
2016-Apr-20 05:25N 33°54' W 118°27'0 0.1
2016-Apr-20 00:27N 33°54' W 118°27'1 0.1
2016-Apr-19 19:21N 33°55' W 118°27'5 6.4
2016-Apr-19 18:31N 33°51' W 118°24'0 0.0
2016-Apr-19 17:31N 33°51' W 118°24'0 0.3
2016-Apr-19 16:06N 33°51' W 118°24'0 0.7
2016-Apr-19 15:30N 33°51' W 118°24'0 0.0
2016-Apr-19 14:31N 33°51' W 118°24'0 0.0
2016-Apr-19 13:31N 33°51' W 118°24'0 0.0
2016-Apr-19 01:33N 33°50' W 118°24'5 4.1
2016-Apr-19 00:23N 33°54' W 118°27'0 0.3
2016-Apr-18 23:33N 33°54' W 118°27'4 4.0
2016-Apr-18 22:33N 33°51' W 118°24'4 4.1
2016-Apr-18 21:33N 33°54' W 118°28'3 3.4
2016-Apr-18 20:33N 33°51' W 118°27'4 3.7
2016-Apr-18 19:24N 33°55' W 118°27'  

Dump ship's entire track history